createdAt,value
2022-11-02T00:01:35.168Z,100587.59
2022-11-02T00:04:04.022Z,100586.16
2022-11-02T00:06:31.473Z,100585.09
2022-11-02T00:08:59.027Z,100587.00
2022-11-02T00:11:26.949Z,100585.19
2022-11-02T00:13:54.440Z,100580.84
2022-11-02T00:16:22.073Z,100533.44
2022-11-02T00:18:53.985Z,100569.31
2022-11-02T00:21:22.789Z,100565.97
2022-11-02T00:23:50.390Z,100559.91
2022-11-02T00:26:17.893Z,100509.75
2022-11-02T00:28:45.358Z,100552.03
2022-11-02T00:31:12.829Z,100551.06
2022-11-02T00:33:40.295Z,100555.41
2022-11-02T00:36:08.235Z,100540.50
2022-11-02T00:38:37.024Z,100536.88
2022-11-02T00:41:04.471Z,100531.56
2022-11-02T00:43:31.932Z,100536.88
2022-11-02T00:45:59.412Z,100531.75
2022-11-02T00:48:26.918Z,100528.25
2022-11-02T00:50:54.430Z,100513.31
2022-11-02T00:53:21.876Z,100513.22
2022-11-02T00:55:51.249Z,100521.09
2022-11-02T00:58:18.724Z,100519.59
2022-11-02T01:00:46.178Z,100523.19
2022-11-02T01:03:13.621Z,100518.81
2022-11-02T01:05:41.073Z,100521.28
2022-11-02T01:08:08.532Z,100515.97
2022-11-02T01:10:35.993Z,100525.00
2022-11-02T01:13:04.766Z,100505.69
2022-11-02T01:15:32.224Z,100502.84
2022-11-02T01:17:59.678Z,100488.78
2022-11-02T01:20:27.113Z,100489.53
2022-11-02T01:22:54.698Z,100485.34
2022-11-02T01:25:22.160Z,100478.34
2022-11-02T01:27:49.584Z,100472.25
2022-11-02T01:30:18.451Z,100479.25
2022-11-02T01:32:45.904Z,100447.53
2022-11-02T01:35:13.341Z,100465.03
2022-11-02T01:37:41.208Z,100465.13
2022-11-02T01:40:09.833Z,100467.78
2022-11-02T01:42:37.273Z,100459.91
2022-11-02T01:45:05.251Z,100460.00
2022-11-02T01:47:37.739Z,100443.94
2022-11-02T01:50:06.606Z,100393.53
2022-11-02T01:52:35.444Z,100447.53
2022-11-02T01:55:05.628Z,100448.38
2022-11-02T01:57:32.910Z,100449.53
2022-11-02T02:00:03.699Z,100448.75
2022-11-02T02:02:31.231Z,100451.50
2022-11-02T02:05:01.079Z,100418.31
2022-11-02T02:07:28.540Z,100443.63
2022-11-02T02:09:56.018Z,100448.09
2022-11-02T02:12:23.603Z,100436.28
2022-11-02T02:14:51.130Z,100470.22
2022-11-02T02:17:25.738Z,100460.44
2022-11-02T02:19:54.925Z,100446.28
2022-11-02T02:22:58.246Z,100453.41
2022-11-02T02:26:02.070Z,100444.69
2022-11-02T02:28:33.532Z,100440.28
2022-11-02T02:31:02.816Z,100440.19
2022-11-02T02:33:31.732Z,100404.94
2022-11-02T02:36:00.983Z,100429.09
2022-11-02T02:38:30.180Z,100448.34
2022-11-02T02:40:59.512Z,100422.69
2022-11-02T02:43:29.759Z,100385.88
2022-11-02T02:46:00.261Z,100441.25
2022-11-02T02:48:28.637Z,100448.34
2022-11-02T02:50:58.694Z,100462.53
2022-11-02T02:53:29.160Z,100455.50
2022-11-02T02:55:56.768Z,100449.50
2022-11-02T02:58:26.353Z,100438.84
2022-11-02T03:00:53.855Z,100344.03
2022-11-02T03:03:26.429Z,100405.72
2022-11-02T03:06:00.572Z,100429.00
2022-11-02T03:08:28.088Z,100367.63
2022-11-02T03:10:58.109Z,100371.03
2022-11-02T03:13:35.956Z,100429.28
2022-11-02T03:16:04.512Z,100391.94
2022-11-02T03:18:37.089Z,100408.72
2022-11-02T03:21:07.535Z,100426.78
2022-11-02T03:23:36.850Z,100429.53
2022-11-02T03:26:06.799Z,100428.50
2022-11-02T03:28:52.858Z,100429.38
2022-11-02T03:31:26.520Z,100376.94
2022-11-02T03:33:57.624Z,100424.97
2022-11-02T03:36:28.296Z,100427.81
2022-11-02T03:38:57.353Z,100428.88
2022-11-02T03:41:24.873Z,100421.94
2022-11-02T03:43:54.497Z,100415.75
2022-11-02T03:46:21.945Z,100416.84
2022-11-02T03:48:50.016Z,100387.66
2022-11-02T03:51:20.111Z,100377.91
2022-11-02T03:53:48.699Z,100419.38
2022-11-02T03:56:19.948Z,100420.25
2022-11-02T03:58:47.376Z,100425.66
2022-11-02T04:01:14.918Z,100424.84
2022-11-02T04:03:44.027Z,100390.97
2022-11-02T04:06:12.723Z,100438.97
2022-11-02T04:08:42.570Z,100383.34
2022-11-02T04:11:27.633Z,100384.47
2022-11-02T04:14:12.805Z,100439.22
2022-11-02T04:16:40.245Z,100450.06
2022-11-02T04:19:25.218Z,100438.31
2022-11-02T04:22:10.489Z,100431.16
2022-11-02T04:24:57.103Z,100447.31
2022-11-02T04:27:24.548Z,100443.91
2022-11-02T04:29:52.013Z,100445.50
2022-11-02T04:32:39.654Z,100441.91
2022-11-02T04:35:07.433Z,100454.25
2022-11-02T04:37:56.770Z,100440.00
2022-11-02T04:40:25.618Z,100419.91
2022-11-02T04:42:53.070Z,100443.13
2022-11-02T04:45:20.621Z,100403.09
2022-11-02T04:47:48.091Z,100451.97
2022-11-02T04:50:15.575Z,100410.97
2022-11-02T04:52:42.986Z,100450.22
2022-11-02T04:55:10.745Z,100447.75
2022-11-02T04:57:39.508Z,100441.50
2022-11-02T05:00:08.620Z,100447.75
2022-11-02T05:02:36.103Z,100448.88
2022-11-02T05:05:06.023Z,100457.66
2022-11-02T05:07:33.506Z,100462.97
2022-11-02T05:10:00.965Z,100461.03
2022-11-02T05:12:29.416Z,100448.53
2022-11-02T05:14:58.306Z,100330.75
2022-11-02T05:17:25.732Z,100461.22
2022-11-02T05:19:53.218Z,100474.50
2022-11-02T05:22:21.288Z,100482.50
2022-11-02T05:24:48.753Z,100473.94
2022-11-02T05:27:16.207Z,100473.78
2022-11-02T05:29:43.708Z,100471.28
2022-11-02T05:32:12.467Z,100487.16
2022-11-02T05:34:39.907Z,100471.94
2022-11-02T05:37:07.345Z,100476.53
2022-11-02T05:39:35.415Z,100487.97
2022-11-02T05:42:02.867Z,100474.69
2022-11-02T05:44:30.356Z,100485.31
2022-11-02T05:46:57.811Z,100487.16
2022-11-02T05:49:26.620Z,100488.94
2022-11-02T05:51:54.135Z,100487.25
2022-11-02T05:54:21.730Z,100440.13
2022-11-02T05:56:49.178Z,100484.66
2022-11-02T05:59:16.667Z,100488.34
2022-11-02T06:01:44.206Z,100485.69
2022-11-02T06:04:11.901Z,100489.28
2022-11-02T06:06:40.734Z,100489.28
2022-11-02T06:09:08.348Z,100489.28
2022-11-02T06:11:35.804Z,100484.06
2022-11-02T06:14:03.710Z,100497.28
2022-11-02T06:16:31.496Z,100494.53
2022-11-02T06:18:58.946Z,100495.56
2022-11-02T06:21:26.398Z,100495.66
2022-11-02T06:23:55.194Z,100505.41
2022-11-02T06:26:22.633Z,100506.38
2022-11-02T06:28:50.072Z,100510.81
2022-11-02T06:31:17.892Z,100515.25
2022-11-02T06:33:45.473Z,100520.75
2022-11-02T06:36:12.931Z,100532.94
2022-11-02T06:38:41.841Z,100533.03
2022-11-02T06:41:10.919Z,100529.34
2022-11-02T06:43:38.496Z,100539.00
2022-11-02T06:46:06.455Z,100538.94
2022-11-02T06:48:35.623Z,100539.78
2022-11-02T06:51:03.465Z,100538.53
2022-11-02T06:53:30.945Z,100540.41
2022-11-02T06:55:58.855Z,100556.59
2022-11-02T06:58:27.675Z,100555.47
2022-11-02T07:00:58.184Z,100494.66
2022-11-02T07:03:25.734Z,100572.53
2022-11-02T07:05:53.327Z,100575.44
2022-11-02T07:08:20.962Z,100571.78
2022-11-02T07:10:48.529Z,100584.16
2022-11-02T07:13:16.000Z,100587.38
2022-11-02T07:15:44.803Z,100590.72
2022-11-02T07:18:12.407Z,100590.72
2022-11-02T07:20:39.871Z,100589.78
2022-11-02T07:23:08.718Z,100600.16
2022-11-02T07:25:36.484Z,100604.47
2022-11-02T07:28:04.221Z,100601.72
2022-11-02T07:30:32.706Z,100557.00
2022-11-02T07:33:01.784Z,100614.22
2022-11-02T07:35:29.462Z,100613.53
2022-11-02T07:37:57.700Z,100609.91
2022-11-02T07:40:25.281Z,100570.50
2022-11-02T07:42:53.814Z,100616.97
2022-11-02T07:45:21.675Z,100621.22
2022-11-02T07:47:49.315Z,100549.38
2022-11-02T07:50:18.981Z,100616.78
2022-11-02T07:52:47.126Z,100622.94
2022-11-02T07:55:15.100Z,100622.00
2022-11-02T07:57:43.592Z,100640.63
2022-11-02T08:00:12.464Z,100630.84
2022-11-02T08:02:40.145Z,100565.06
2022-11-02T08:05:08.269Z,100628.25
2022-11-02T08:07:37.025Z,100634.28
2022-11-02T08:10:05.245Z,100633.03
2022-11-02T08:12:32.801Z,100641.22
2022-11-02T08:15:04.777Z,100634.97
2022-11-02T08:17:34.747Z,100645.34
2022-11-02T08:20:02.219Z,100640.75
2022-11-02T08:22:29.675Z,100655.72
2022-11-02T08:24:58.470Z,100639.94
2022-11-02T08:27:25.945Z,100646.78
2022-11-02T08:29:53.733Z,100656.56
2022-11-02T08:32:21.158Z,100654.75
2022-11-02T08:34:48.729Z,100645.06
2022-11-02T08:37:16.203Z,100663.78
2022-11-02T08:39:43.679Z,100661.03
2022-11-02T08:42:12.579Z,100659.31
2022-11-02T08:44:42.563Z,100665.84
2022-11-02T08:47:10.315Z,100664.22
2022-11-02T08:49:37.775Z,100669.38
2022-11-02T08:52:05.411Z,100682.69
2022-11-02T08:54:32.895Z,100678.88
2022-11-02T08:57:00.350Z,100685.84
2022-11-02T08:59:29.113Z,100677.75
2022-11-02T09:01:56.837Z,100691.75
2022-11-02T09:04:24.506Z,100680.16
2022-11-02T09:06:52.046Z,100683.09
2022-11-02T09:09:19.502Z,100687.38
2022-11-02T09:11:47.018Z,100697.16
2022-11-02T09:14:14.560Z,100703.28
2022-11-02T09:16:43.477Z,100697.84
2022-11-02T09:19:10.997Z,100704.78
2022-11-02T09:21:38.472Z,100634.03
2022-11-02T09:24:06.673Z,100699.72
2022-11-02T09:26:34.167Z,100710.38
2022-11-02T09:29:01.676Z,100717.56
2022-11-02T09:31:29.328Z,100733.47
2022-11-02T09:33:58.200Z,100729.81
2022-11-02T09:36:25.625Z,100731.50
2022-11-02T09:38:53.148Z,100731.41
2022-11-02T09:41:22.311Z,100744.56
2022-11-02T09:43:53.961Z,100709.38
2022-11-02T09:46:25.352Z,100743.69
2022-11-02T09:48:54.420Z,100736.22
2022-11-02T09:51:24.123Z,100747.47
2022-11-02T09:53:55.522Z,100735.47
2022-11-02T09:56:22.967Z,100678.41
2022-11-02T09:58:52.438Z,100678.16
2022-11-02T10:01:38.270Z,100757.69
2022-11-02T10:04:19.030Z,100760.97
2022-11-02T10:06:51.525Z,100759.72
2022-11-02T10:09:20.869Z,100768.25
2022-11-02T10:11:52.162Z,100765.41
2022-11-02T10:14:20.647Z,100771.72
2022-11-02T10:16:51.030Z,100765.41
2022-11-02T10:19:20.669Z,100771.56
2022-11-02T10:21:50.722Z,100788.22
2022-11-02T10:24:22.936Z,100775.88
2022-11-02T10:26:50.359Z,100769.50
2022-11-02T10:29:19.756Z,100781.44
2022-11-02T10:31:48.456Z,100774.22
2022-11-02T10:34:21.940Z,100787.38
2022-11-02T10:36:55.153Z,100726.44
2022-11-02T10:39:25.795Z,100724.44
2022-11-02T10:42:00.299Z,100781.59
2022-11-02T10:44:37.990Z,100796.63
2022-11-02T10:47:09.844Z,100788.72
2022-11-02T10:49:58.221Z,100787.97
2022-11-02T10:52:26.991Z,100802.22
2022-11-02T10:54:55.589Z,100799.47
2022-11-02T10:57:23.997Z,100791.00
2022-11-02T11:00:22.846Z,100808.66
2022-11-02T11:03:07.742Z,100834.94
2022-11-02T11:05:36.360Z,100747.31
2022-11-02T11:08:06.179Z,100759.78
2022-11-02T11:10:36.623Z,100819.47
2022-11-02T11:13:04.530Z,100823.13
2022-11-02T11:15:48.868Z,100821.69
2022-11-02T11:21:06.933Z,100807.91
2022-11-02T11:23:35.688Z,100807.03
2022-11-02T11:26:03.809Z,100801.41
2022-11-02T11:28:33.593Z,100752.63
2022-11-02T11:31:11.895Z,100829.22
2022-11-02T11:33:43.636Z,100820.31
2022-11-02T11:36:11.255Z,100815.72
2022-11-02T11:38:40.128Z,100812.94
2022-11-02T11:41:07.565Z,100816.31
2022-11-02T11:43:38.213Z,100766.06
2022-11-02T11:46:07.331Z,100797.78
2022-11-02T11:48:36.655Z,100766.13
2022-11-02T11:51:04.373Z,100789.19
2022-11-02T11:53:32.055Z,100841.81
2022-11-02T11:56:00.992Z,100784.16
2022-11-02T11:58:30.082Z,100846.41
2022-11-02T12:01:09.303Z,100799.72
2022-11-02T12:03:51.128Z,100838.81
2022-11-02T12:06:23.421Z,100790.38
2022-11-02T12:08:52.136Z,100845.31
2022-11-02T12:11:27.632Z,100846.41
2022-11-02T12:14:10.505Z,100835.16
2022-11-02T12:16:52.505Z,100835.25
2022-11-02T12:19:27.305Z,100801.28
2022-11-02T12:22:02.353Z,100852.13
2022-11-02T12:25:00.658Z,100843.84
2022-11-02T12:27:34.134Z,100783.22
2022-11-02T12:30:11.316Z,100840.50
2022-11-02T12:32:48.418Z,100841.41
2022-11-02T12:35:29.918Z,100840.81
2022-11-02T12:38:22.511Z,100834.53
2022-11-02T12:40:55.493Z,100830.25
2022-11-02T12:43:37.831Z,100817.97
2022-11-02T12:46:08.267Z,100839.22
2022-11-02T12:48:40.251Z,100810.34
2022-11-02T12:51:09.987Z,100835.72
2022-11-02T12:53:43.325Z,100831.03
2022-11-02T12:56:13.787Z,100846.47
2022-11-02T12:58:42.545Z,100850.94
2022-11-02T13:01:14.013Z,100856.28
2022-11-02T13:03:45.540Z,100856.19
2022-11-02T13:06:14.371Z,100848.88
2022-11-02T13:08:44.899Z,100851.72
2022-11-02T13:11:14.409Z,100854.97
2022-11-02T13:13:45.943Z,100859.34
2022-11-02T13:16:14.697Z,100872.69
2022-11-02T13:18:43.645Z,100827.94
2022-11-02T13:21:11.073Z,100871.81
2022-11-02T13:23:39.595Z,100864.69
2022-11-02T13:26:10.372Z,100867.25
2022-11-02T13:28:43.111Z,100867.25
2022-11-02T13:31:13.227Z,100818.34
2022-11-02T13:33:41.815Z,100866.09
2022-11-02T13:36:09.539Z,100800.59
2022-11-02T13:38:38.474Z,100860.78
2022-11-02T13:41:13.903Z,100865.16
2022-11-02T13:43:53.351Z,100862.38
2022-11-02T13:46:45.255Z,100870.38
2022-11-02T13:49:14.229Z,100869.44
2022-11-02T13:51:43.891Z,100867.63
2022-11-02T13:54:13.826Z,100870.28
2022-11-02T13:56:41.256Z,100871.16
2022-11-02T13:59:10.871Z,100862.19
2022-11-02T14:01:40.169Z,100869.34
2022-11-02T14:04:08.133Z,100864.69
2022-11-02T14:06:45.394Z,100866.19
2022-11-02T14:09:18.570Z,100872.50
2022-11-02T14:11:47.906Z,100867.94
2022-11-02T14:14:25.792Z,100872.03
2022-11-02T14:17:15.224Z,100814.72
2022-11-02T14:19:53.619Z,100829.03
2022-11-02T14:22:21.222Z,100863.81
2022-11-02T14:25:08.576Z,100887.38
2022-11-02T14:27:36.066Z,100882.38
2022-11-02T14:30:05.562Z,100882.56
2022-11-02T14:32:43.135Z,100882.91
2022-11-02T14:35:19.687Z,100889.31
2022-11-02T14:38:00.666Z,100886.97
2022-11-02T14:40:30.523Z,100886.66
2022-11-02T14:43:27.353Z,100879.72
2022-11-02T14:46:09.334Z,100806.69
2022-11-02T14:48:44.323Z,100834.38
2022-11-02T14:51:16.673Z,100863.63
2022-11-02T14:53:44.140Z,100865.91
2022-11-02T14:56:11.579Z,100870.00
2022-11-02T14:58:40.198Z,100874.31
2022-11-02T15:01:13.416Z,100866.56
2022-11-02T15:03:41.235Z,100827.78
2022-11-02T15:06:17.369Z,100865.06
2022-11-02T15:08:52.750Z,100843.41
2022-11-02T15:11:45.561Z,100875.81
2022-11-02T15:14:53.091Z,100887.81
2022-11-02T15:18:06.220Z,100883.69
2022-11-02T15:20:35.100Z,100883.25
2022-11-02T15:23:24.070Z,100895.81
2022-11-02T15:25:57.171Z,100882.72
2022-11-02T15:28:25.994Z,100881.09
2022-11-02T15:30:54.150Z,100850.19
2022-11-02T15:33:26.497Z,100876.97
2022-11-02T15:35:55.359Z,100873.56
2022-11-02T15:38:31.487Z,100872.78
2022-11-02T15:41:06.558Z,100847.13
2022-11-02T15:43:43.880Z,100875.63
2022-11-02T15:46:13.683Z,100819.06
2022-11-02T15:48:44.139Z,100828.81
2022-11-02T15:51:17.713Z,100834.88
2022-11-02T15:54:12.118Z,100885.03
2022-11-02T15:56:48.338Z,100880.81
2022-11-02T15:59:37.097Z,100881.88
2022-11-02T16:02:24.053Z,100881.97
2022-11-02T16:04:52.721Z,100846.25
2022-11-02T16:07:21.486Z,100888.53
2022-11-02T16:09:48.936Z,100884.25
2022-11-02T16:12:18.748Z,100879.00
2022-11-02T16:14:47.030Z,100874.50
2022-11-02T16:17:21.475Z,100879.09
2022-11-02T16:19:49.173Z,100881.84
2022-11-02T16:22:23.459Z,100874.78
2022-11-02T16:24:50.972Z,100795.09
2022-11-02T16:27:18.416Z,100871.38
2022-11-02T16:29:45.897Z,100867.13
2022-11-02T16:32:13.443Z,100871.81
2022-11-02T16:34:41.936Z,100845.44
2022-11-02T16:37:11.204Z,100870.06
2022-11-02T16:39:41.989Z,100871.13
2022-11-02T16:42:14.221Z,100814.28
2022-11-02T16:44:43.072Z,100867.75
2022-11-02T16:47:17.840Z,100828.13
2022-11-02T16:50:00.147Z,100867.75
2022-11-02T16:52:30.807Z,100852.66
2022-11-02T16:54:59.649Z,100866.22
2022-11-02T16:57:28.306Z,100870.78
2022-11-02T16:59:56.686Z,100871.75
2022-11-02T17:02:30.966Z,100867.38
2022-11-02T17:05:02.416Z,100871.91
2022-11-02T17:07:34.321Z,100882.66
2022-11-02T17:10:04.636Z,100807.13
2022-11-02T17:12:34.382Z,100882.16
2022-11-02T17:15:02.361Z,100879.31
2022-11-02T17:17:33.035Z,100884.72
2022-11-02T17:20:16.582Z,100887.38
2022-11-02T17:22:50.436Z,100882.22
2022-11-02T17:25:22.796Z,100850.53
2022-11-02T17:27:50.649Z,100879.81
2022-11-02T17:30:49.449Z,100883.44
2022-11-02T17:33:23.867Z,100892.47
2022-11-02T17:35:52.011Z,100881.88
2022-11-02T17:38:19.644Z,100878.44
2022-11-02T17:40:51.969Z,100878.44
2022-11-02T17:43:18.851Z,100876.72
2022-11-02T17:45:46.332Z,100875.00
2022-11-02T17:48:13.764Z,100876.03
2022-11-02T17:50:41.196Z,100880.50
2022-11-02T17:53:12.012Z,100884.09
2022-11-02T17:55:39.457Z,100888.66
2022-11-02T17:58:08.577Z,100886.84
2022-11-02T18:00:36.293Z,100883.41
2022-11-02T18:03:03.725Z,100877.34
2022-11-02T18:05:32.100Z,100879.13
2022-11-02T18:07:59.590Z,100879.13
2022-11-02T18:10:28.370Z,100807.94
2022-11-02T18:12:55.825Z,100886.41
2022-11-02T18:15:25.351Z,100876.72
2022-11-02T18:17:52.807Z,100877.75
2022-11-02T18:20:20.428Z,100876.88
2022-11-02T18:22:47.902Z,100828.72
2022-11-02T18:25:16.351Z,100868.13
2022-11-02T18:27:45.537Z,100862.88
2022-11-02T18:30:14.405Z,100829.56
2022-11-02T18:32:43.877Z,100863.03
2022-11-02T18:35:12.251Z,100865.72
2022-11-02T18:37:39.795Z,100840.28
2022-11-02T18:40:08.471Z,100864.19
2022-11-02T18:42:36.267Z,100865.03
2022-11-02T18:45:03.805Z,100822.16
2022-11-02T18:47:31.272Z,100859.03
2022-11-02T18:50:00.689Z,100865.31
2022-11-02T18:52:32.144Z,100862.81
2022-11-02T18:55:03.194Z,100871.72
2022-11-02T18:57:30.701Z,100875.34
2022-11-02T18:59:58.236Z,100813.66
2022-11-02T19:02:25.756Z,100875.50
2022-11-02T19:04:53.310Z,100869.38
2022-11-02T19:07:39.865Z,100868.63
2022-11-02T19:10:07.660Z,100863.31
2022-11-02T19:12:35.112Z,100863.47
2022-11-02T19:15:02.646Z,100859.88
2022-11-02T19:17:30.189Z,100861.75
2022-11-02T19:19:57.709Z,100856.41
2022-11-02T19:22:26.732Z,100799.38
2022-11-02T19:24:54.245Z,100793.66
2022-11-02T19:27:22.700Z,100856.41
2022-11-02T19:29:50.354Z,100855.66
2022-11-02T19:32:18.135Z,100845.03
2022-11-02T19:34:45.598Z,100849.56
2022-11-02T19:37:13.066Z,100842.53
2022-11-02T19:39:41.915Z,100828.94
2022-11-02T19:42:09.363Z,100842.69
2022-11-02T19:44:42.247Z,100803.97
2022-11-02T19:47:10.078Z,100834.78
2022-11-02T19:49:37.551Z,100835.81
2022-11-02T19:52:04.988Z,100831.59
2022-11-02T19:54:32.446Z,100827.22
2022-11-02T19:57:01.339Z,100837.00
2022-11-02T19:59:30.324Z,100835.31
2022-11-02T20:01:57.839Z,100820.25
2022-11-02T20:04:25.425Z,100827.31
2022-11-02T20:06:52.895Z,100815.88
2022-11-02T20:09:20.492Z,100817.69
2022-11-02T20:11:48.195Z,100819.50
2022-11-02T20:14:17.462Z,100781.31
2022-11-02T20:16:47.326Z,100821.53
2022-11-02T20:19:21.267Z,100816.31
2022-11-02T20:21:48.685Z,100821.53
2022-11-02T20:24:16.340Z,100819.75
2022-11-02T20:26:43.788Z,100817.19
2022-11-02T20:29:15.294Z,100812.69
2022-11-02T20:31:46.034Z,100811.84
2022-11-02T20:34:13.634Z,100742.19
2022-11-02T20:36:41.875Z,100807.53
2022-11-02T20:39:10.834Z,100802.31
2022-11-02T20:41:38.259Z,100807.63
2022-11-02T20:44:05.716Z,100806.06
2022-11-02T20:46:38.306Z,100806.94
2022-11-02T20:49:21.054Z,100799.06
2022-11-02T20:51:56.052Z,100803.50
2022-11-02T20:54:23.796Z,100796.63
2022-11-02T20:56:51.296Z,100786.78
2022-11-02T20:59:18.963Z,100798.81
2022-11-02T21:01:46.557Z,100812.03
2022-11-02T21:04:20.155Z,100802.41
2022-11-02T21:06:48.109Z,100797.94
2022-11-02T21:09:15.565Z,100796.31
2022-11-02T21:12:00.928Z,100798.19
2022-11-02T21:14:28.388Z,100787.72
2022-11-02T21:16:56.221Z,100783.28
2022-11-02T21:19:25.000Z,100780.53
2022-11-02T21:21:58.097Z,100777.94
2022-11-02T21:24:27.044Z,100779.66
2022-11-02T21:26:54.519Z,100767.22
2022-11-02T21:29:22.545Z,100765.44
2022-11-02T21:31:49.981Z,100755.72
2022-11-02T21:34:17.419Z,100754.72
2022-11-02T21:36:46.172Z,100751.28
2022-11-02T21:39:13.725Z,100751.09
2022-11-02T21:41:41.167Z,100740.63
2022-11-02T21:44:08.804Z,100745.00
2022-11-02T21:46:36.412Z,100702.88
2022-11-02T21:49:03.953Z,100741.50
2022-11-02T21:51:31.584Z,100701.31
2022-11-02T21:54:00.355Z,100745.16
2022-11-02T21:56:30.509Z,100745.41
2022-11-02T21:58:57.763Z,100749.13
2022-11-02T22:01:43.372Z,100744.91
2022-11-02T22:04:11.665Z,100740.69
2022-11-02T22:06:39.140Z,100736.84
2022-11-02T22:09:09.184Z,100742.84
2022-11-02T22:11:36.632Z,100742.34
2022-11-02T22:14:04.174Z,100693.25
2022-11-02T22:16:34.612Z,100740.44
2022-11-02T22:19:03.010Z,100683.44
2022-11-02T22:21:31.791Z,100731.47
2022-11-02T22:23:59.232Z,100720.03
2022-11-02T22:26:28.887Z,100724.50
2022-11-02T22:28:57.640Z,100719.06
2022-11-02T22:31:26.062Z,100729.97
2022-11-02T22:33:54.222Z,100737.28
2022-11-02T22:36:23.014Z,100729.28
2022-11-02T22:38:53.516Z,100728.34
2022-11-02T22:41:22.821Z,100731.88
2022-11-02T22:43:52.657Z,100725.84
2022-11-02T22:46:20.219Z,100667.72
2022-11-02T22:48:47.667Z,100710.00
2022-11-02T22:51:15.424Z,100711.94
2022-11-02T22:53:42.855Z,100702.25
2022-11-02T22:56:11.872Z,100697.72
2022-11-02T22:58:39.778Z,100631.47
2022-11-02T23:01:09.563Z,100699.53
2022-11-02T23:03:37.211Z,100689.91
2022-11-02T23:06:06.350Z,100692.66
2022-11-02T23:08:34.285Z,100648.19
2022-11-02T23:11:19.335Z,100639.34
2022-11-02T23:13:47.671Z,100675.06
2022-11-02T23:16:22.448Z,100673.28
2022-11-02T23:19:11.976Z,100569.31
2022-11-02T23:21:39.641Z,100678.84
2022-11-02T23:24:25.535Z,100677.97
2022-11-02T23:26:53.157Z,100680.72
2022-11-02T23:31:59.008Z,100672.91
2022-11-02T23:34:26.476Z,100675.56
2022-11-02T23:36:52.963Z,100667.66
2022-11-02T23:39:40.509Z,100660.66
2022-11-02T23:42:07.960Z,100663.38
2022-11-02T23:44:35.402Z,100646.81
2022-11-02T23:47:04.162Z,100650.09
2022-11-02T23:49:31.649Z,100622.81
2022-11-02T23:52:16.663Z,100635.44
2022-11-02T23:55:01.944Z,100646.00
2022-11-02T23:57:30.085Z,100574.75
2022-11-02T23:59:57.616Z,100634.81
